Terminal Aerodrome Forecast
Issued by NWS Sterling, VA

Current Version | Previous Version | Graphics & Text | Print | Product List | Glossary On
Versions: 1 2 3 4 5 6 7 8 9 10 11 12 13 14 15 16 17 18 19 20 21 22 23
000
FTUS41 KLWX 240500
TAFDCA
TAF
KDCA 240535Z 2406/2506 14013KT 3SM RA OVC008 WS020/16045KT
     FM240700 15014KT 3SM RA BR OVC008 WS020/18045KT
     FM240900 18014KT 3SM -RA BR OVC008
     FM241100 19012KT 2SM BR OVC008
     FM241500 20013KT P6SM OVC025
     FM241600 20014KT P6SM BKN045
     FM250200 21011KT P6SM SCT250=

USA.gov is the U.S. government's official web portal to all federal, state and local government web resources and services.